Airfield :
LOGIN :

Register | Disclaimer

   EN    FR    IT 

 










Legend :    VFR   Marginal VFR   IFR   Intensive IFR   Very Intensive IFR
Visi :
Ceiling :
>= 8 km
>= 3000ft
5 to 8 km
1000 to 3000 ft
1500m to 5 km
500 to 1000 ft
800 to 1500m
200 to 500 ft
< 800m
< 200 ft
Symbols :   Thunderstorms  Fog  Heavy snow  Heavy precipitations  Wind > 20 kt
SIGMETs :     Misc.  Thunderstorms  Icing  Turbulence  Mountain Waves  Volcanic Ashes







- Airport Elevation : 598 ft
- IATA code : BQH
- Download approach charts


EGKB - Biggin Hill

CURRENT METAR :
  • 191220Z 16014KT 9000 3000S BR SCT010 16/15 Q1002

EXPIRED METARs :
  • 191150Z 16017KT 8000 3000S BR SCT010 16/15 Q1003
  • 191120Z 15016KT 7000 -DZ BKN010 16/14 Q1003
  • 191050Z 15011KT 8000 2000S FEW005 16/14 Q1004
  • 191020Z 15011KT 8000 FEW001 15/14 Q1004
  • 190950Z 14010KT 7000 NSC 16/14 Q1005

TAF TAF EGKB
Valid from the 19 at 12:00 until the 19 at 21:00 UTC


191105Z 1912/1921 18012KT 9999 FEW020
TEMPO 1912/1921 6000 -RADZ BKN006
PROB40
TEMPO 1918/1921 17017G27KT
PROB30
TEMPO 1919/1921 3000 +RA
No reported NOTAMs for that airfield.



MET'MAP, your aeronautical weather chart ! - Copyright ORBIFLY December 2007 - Disclaimer

ORBIFLY MET'MAP TEAM :

Programming & Development : Alexandra Zaïnal
Concept & Development : Baudouin d'Aumeries
Co-Development & Prog : Marc-Olivier Méhu
Technical & hardware support : Manuel Goepfert

Contact : metmap@orbifly.com




SOURCES & CREDITS :

   NOAA